Terminal Aerodrome Forecast
Issued by NWS

Home | Current Version | Previous Version | Graphics & Text | Print | Product List | Glossary On
Versions: 1 2 3 4 5 6 7 8 9 10 11 12 13 14 15 16 17 18 19 20 21 22 23 24 25 26 27 28 29 30 31 32 33 34 35 36 37 38 39 40 41 42 43 44 45 46 47 48 49 50
000
FTUS43 KLOT 261728
TAFGYY
TAF
KGYY 261728Z 2618/2718 17012G20KT 6SM -SHRA VCTS BKN020CB OVC025
      TEMPO 2618/2620 3SM RA OVC020
     FM262000 18015G22KT P6SM VCSH BKN025
     FM270000 21010KT P6SM SCT020 BKN035
     FM270500 22011KT P6SM SCT035 BKN250
     FM270900 23009KT 5SM BR BKN015
     FM271300 26012KT P6SM SCT025=

USA.gov is the U.S. government's official web portal to all federal, state and local government web resources and services.